地図

経路データ

SID SEASON NUMBER BASIN SUBBASIN NAME ISO_TIME NATURE LAT LON WMO_WIND WMO_PRES WMO_AGENCY TRACK_TYPE DIST2LAND LANDFALL IFLAG USA_AGENCY USA_ATCF_ID USA_LAT USA_LON USA_RECORD USA_STATUS USA_WIND USA_PRES USA_SSHS USA_R34_NE USA_R34_SE USA_R34_SW USA_R34_NW USA_R50_NE USA_R50_SE USA_R50_SW USA_R50_NW USA_R64_NE USA_R64_SE USA_R64_SW USA_R64_NW USA_POCI USA_ROCI USA_RMW USA_EYE TOKYO_LAT TOKYO_LON TOKYO_GRADE TOKYO_WIND TOKYO_PRES TOKYO_R50_DIR TOKYO_R50_LONG TOKYO_R50_SHORT TOKYO_R30_DIR TOKYO_R30_LONG TOKYO_R30_SHORT TOKYO_LAND CMA_LAT CMA_LON CMA_CAT CMA_WIND CMA_PRES HKO_LAT HKO_LON HKO_CAT HKO_WIND HKO_PRES NEWDELHI_LAT NEWDELHI_LON NEWDELHI_GRADE NEWDELHI_WIND NEWDELHI_PRES NEWDELHI_CI NEWDELHI_DP NEWDELHI_POCI REUNION_LAT REUNION_LON REUNION_TYPE REUNION_WIND REUNION_PRES REUNION_TNUM REUNION_CI REUNION_RMW REUNION_R34_NE REUNION_R34_SE REUNION_R34_SW REUNION_R34_NW REUNION_R50_NE REUNION_R50_SE REUNION_R50_SW REUNION_R50_NW REUNION_R64_NE REUNION_R64_SE REUNION_R64_SW REUNION_R64_NW BOM_LAT BOM_LON BOM_TYPE BOM_WIND BOM_PRES BOM_TNUM BOM_CI BOM_RMW BOM_R34_NE BOM_R34_SE BOM_R34_SW BOM_R34_NW BOM_R50_NE BOM_R50_SE BOM_R50_SW BOM_R50_NW BOM_R64_NE BOM_R64_SE BOM_R64_SW BOM_R64_NW BOM_ROCI BOM_POCI BOM_EYE BOM_POS_METHOD BOM_PRES_METHOD NADI_LAT NADI_LON NADI_CAT NADI_WIND NADI_PRES WELLINGTON_LAT WELLINGTON_LON WELLINGTON_WIND WELLINGTON_PRES DS824_LAT DS824_LON DS824_STAGE DS824_WIND DS824_PRES TD9636_LAT TD9636_LON TD9636_STAGE TD9636_WIND TD9636_PRES TD9635_LAT TD9635_LON TD9635_WIND TD9635_PRES TD9635_ROCI NEUMANN_LAT NEUMANN_LON NEUMANN_CLASS NEUMANN_WIND NEUMANN_PRES MLC_LAT MLC_LON MLC_CLASS MLC_WIND MLC_PRES USA_GUST BOM_GUST BOM_GUST_PER REUNION_GUST REUNION_GUST_PER USA_SEAHGT USA_SEARAD_NE USA_SEARAD_SE USA_SEARAD_SW USA_SEARAD_NW STORM_SPEED STORM_DIR
1967253N29167 1967 95 WP MM THELMA 1967-09-10 00:00:00 TS 28.7286 167.186 994 tokyo main 2424 2375 OOOO_____OOO__ jtwc_wp WP231967 28.8000 167.100 25 -1 28.6000 167.300 9 994 0 0 0 28.7000 167.400 2 38 994 28.6000 167.200 TD 25 1002 28.8000 167.100 TC 25 28.8000 167.100 1 25 28.8000 167.100 25 1002 60 10 309
1967253N29167 1967 95 WP MM THELMA 1967-09-10 03:00:00 TS 29.0466 166.737 main 2369 2320 PPPP_____PPP__ WP231967 29.0553 166.685 27 -1 28.9607 166.723 9 994 0 0 29.0156 166.811 2 38 993 29.1052 166.911 TD 25 1002 29.0553 166.685 TC 27 29.0791 166.661 1 27 29.0553 166.685 27 1001 90 10 306
1967253N29167 1967 95 WP MM THELMA 1967-09-10 06:00:00 TS 29.3338 166.224 994 tokyo main 2315 2255 OOOO_____OPO__ jtwc_wp WP231967 29.3000 166.200 30 -1 29.3000 166.100 9 994 0 0 0 29.3000 166.200 2 38 992 29.5000 166.500 TD 25 1002 29.3000 166.200 TC 30 29.3363 166.167 1 30 29.3000 166.200 30 1001 120 11 297
1967253N29167 1967 95 WP MM THELMA 1967-09-10 09:00:00 TS 29.5641 165.587 main 2255 2204 PPPP_____PPP__ WP231967 29.5218 165.582 32 -1 29.5939 165.383 9 992 0 0 29.5293 165.545 2 38 991 29.7092 165.870 TD 27 1001 29.5218 165.582 TC 32 29.5508 165.564 1 32 29.5218 165.582 32 1000 120 13 288
1967253N29167 1967 95 WP MM THELMA 1967-09-10 12:00:00 TS 29.7286 164.786 990 tokyo main 2204 2148 OOOO_____OOO__ jtwc_wp WP231967 29.7000 164.800 35 0 29.8000 164.500 9 990 0 0 0 29.7000 164.800 2 38 991 29.8000 165.000 TD 30 1000 29.7000 164.800 TC 35 29.7000 164.800 2 35 29.7000 164.800 35 999 120 15 280
1967253N29167 1967 95 WP MM THELMA 1967-09-10 15:00:00 TS 29.8372 163.835 main 2143 2085 PPPP_____PPP__ WP231967 29.8363 163.898 37 0 29.8804 163.394 9 990 0 0 29.8212 163.982 2 38 991 29.8795 163.940 TD 30 1000 29.8363 163.898 TC 37 29.7702 163.838 2 36 29.8363 163.898 37 998 120 18 275
1967253N29167 1967 95 WP MM THELMA 1967-09-10 18:00:00 TS 29.8838 162.715 990 tokyo main 2081 2030 OOOO_____OPO__ jtwc_wp WP231967 29.9000 162.800 40 0 29.9000 162.200 9 990 0 0 0 29.9000 163.000 2 38 992 29.9000 162.700 TD 30 1000 29.9000 162.800 TC 40 29.7864 162.706 2 37 29.9000 162.800 40 997 120 20 271
1967253N29167 1967 95 WP MM THELMA 1967-09-10 21:00:00 TS 29.8788 161.490 main 2023 1909 PPPP_____PPP__ WP231967 29.8644 161.524 40 0 29.9549 161.145 9 990 0 0 29.9630 161.870 2 38 992 29.8565 161.394 TD 32 999 29.8644 161.524 TC 40 29.7841 161.447 2 38 29.8644 161.524 40 996 120 22 269
1967253N29167 1967 95 WP MM THELMA 1967-09-11 00:00:00 TS 29.8571 160.129 990 tokyo main 1900 1783 OOOO_____OOO__ jtwc_wp WP231967 29.8000 160.100 40 0 30.0000 160.000 9 990 0 0 0 30.0000 160.500 2 38 993 29.8000 160.000 TS 35 998 29.8000 160.100 TC 40 29.8000 160.100 2 40 29.8000 160.100 40 996 120 25 269
1967253N29167 1967 95 WP MM THELMA 1967-09-11 03:00:00 TS 29.8389 158.643 main 1775 1649 PPPP_____PPP__ WP231967 29.7621 158.607 42 0 30.0005 158.587 9 990 0 0 29.9938 158.836 2 38 993 29.7689 158.564 TS 37 997 29.7621 158.607 TC 42 29.8232 158.696 2 41 29.7621 158.607 42 994 120 26 270
1967253N29167 1967 95 WP MM THELMA 1967-09-11 06:00:00 TS 29.8678 157.117 990 tokyo main 1641 1517 OOOO_____OPO__ jtwc_wp WP231967 29.8000 157.100 45 0 30.0000 157.100 9 990 0 0 0 30.0000 157.100 2 38 994 29.8000 157.100 TS 40 996 29.8000 157.100 TC 45 29.8749 157.222 2 42 29.8000 157.100 45 993 120 26 273
1967253N29167 1967 95 WP MM THELMA 1967-09-11 09:00:00 TS 29.9619 155.669 main 1517 1388 PPPP_____PPP__ WP231967 29.9383 155.677 45 0 30.0030 155.741 9 992 0 0 30.0385 155.531 2 43 994 29.8887 155.641 TS 42 995 29.9383 155.677 TC 45 29.9886 155.738 2 43 29.9383 155.677 45 992 120 25 277
1967253N29167 1967 95 WP MM THELMA 1967-09-11 12:00:00 TS 30.1714 154.271 994 tokyo main 1388 1256 OOOO_____OOO__ jtwc_wp WP231967 30.2000 154.300 45 0 30.1000 154.400 9 994 0 0 0 30.2000 154.100 3 48 994 30.1000 154.200 TS 45 994 30.2000 154.300 TC 45 30.2000 154.300 2 45 30.2000 154.300 45 991 120 25 282
1967253N29167 1967 95 WP MM THELMA 1967-09-11 15:00:00 TS 30.4930 152.870 main 1256 1126 PPPP_____PPP__ WP231967 30.5541 152.920 47 0 30.3107 152.940 9 994 0 0 30.5390 152.761 3 48 994 30.4471 152.748 TS 45 994 30.5541 152.920 TC 47 30.4919 152.884 2 45 30.5541 152.920 47 990 120 25 288
1967253N29167 1967 95 WP MM THELMA 1967-09-11 18:00:00 TS 30.9272 151.561 994 tokyo main 1126 1008 OOOO_____OPO__ jtwc_wp WP231967 31.0000 151.600 50 0 30.7000 151.600 9 994 0 0 0 31.0000 151.600 3 48 994 30.9000 151.400 TS 45 994 31.0000 151.600 TC 50 30.8906 151.528 2 45 31.0000 151.600 50 990 120 23 293
1967253N29167 1967 95 WP MM THELMA 1967-09-11 21:00:00 TS 31.4158 150.392 main 1000 884 PPPP_____PPP__ WP231967 31.4542 150.339 47 0 31.3179 150.568 9 996 0 0 31.4831 150.646 3 43 996 31.3533 150.231 TS 42 995 31.4542 150.339 TC 47 31.3935 150.283 2 45 31.4542 150.339 47 991 120 22 299
1967253N29167 1967 95 WP MM THELMA 1967-09-12 00:00:00 TS 31.9857 149.357 998 tokyo main 884 770 OOOO_____OOO__ jtwc_wp WP231967 32.0000 149.200 45 0 32.0000 149.700 9 998 0 0 0 32.0000 149.800 2 38 998 31.9000 149.200 TS 40 996 32.0000 149.200 TC 45 32.0000 149.200 2 45 32.0000 149.200 45 992 120 21 304
1967253N29167 1967 95 WP MM THELMA 1967-09-12 03:00:00 TS 32.5898 148.358 main 770 673 PPPP_____PPP__ WP231967 32.6397 148.138 42 0 32.4925 148.781 9 998 0 0 32.4704 148.839 2 38 998 32.5400 148.160 TS 37 997 32.6397 148.138 TC 42 32.7065 148.316 2 42 32.6397 148.138 42 994 120 20 310
1967253N29167 1967 95 WP MM THELMA 1967-09-12 06:00:00 TS 33.2616 147.570 998 tokyo main 668 599 OOOO_____OPO__ jtwc_wp WP231967 33.4000 147.300 40 0 33.0000 148.000 9 998 0 0 0 33.0000 148.000 2 38 998 33.3000 147.300 TS 35 998 33.4000 147.300 TC 40 33.4930 147.593 2 40 33.4000 147.300 40 997 120 18 322
1967253N29167 1967 95 WP MM THELMA 1967-09-12 09:00:00 TS 33.9903 147.027 main 586 537 PPPP_____PPP__ WP231967 34.2698 146.763 37 0 33.5794 147.409 9 998 0 0 33.5792 147.415 2 38 998 34.2216 146.680 TS 35 998 34.2698 146.763 TC 37 34.3335 146.973 2 37 34.2698 146.763 37 999 90 17 334
1967253N29167 1967 95 WP MM THELMA 1967-09-12 12:00:00 TS 34.7533 146.700 998 tokyo main 534 504 OOOO_____OOO__ jtwc_wp WP231967 35.2000 146.400 35 0 34.4000 147.000 9 998 0 0 0 34.4000 147.000 2 38 998 35.1000 146.300 TS 35 998 35.2000 146.400 TC 35 35.2000 146.400 2 35 35.2000 146.400 35 1001 60 17 346
1967253N29167 1967 95 WP MM THELMA 1967-09-12 15:00:00 TS 35.6101 146.533 main 504 462 _PPP__________ WP231967 -1 35.5799 146.697 9 998 0 0 35.5802 146.584 2 38 998 35.7302 146.102 TS 32 999 TC 2 22 353
1967253N29167 1967 95 WP MM THELMA 1967-09-12 18:00:00 TS 36.9111 146.356 998 tokyo main 457 374 _OOO__________ -1 37.0000 146.500 9 998 0 0 0 37.0000 146.300 2 38 998 36.2000 146.000 TD 30 1000 2 29 355
1967253N29167 1967 95 WP MM THELMA 1967-09-12 21:00:00 TS 38.4698 146.198 main 370 335 _PP___________ -1 38.4699 146.257 9 998 0 0 38.4697 146.139 2 38 998 TD 2 31 358
1967253N29167 1967 95 WP MM THELMA 1967-09-13 00:00:00 MX 40.0000 146.200 998 tokyo main 328 202 _OO___________ -1 40.0000 146.200 6 998 0 0 0 40.0000 146.200 2 38 998 31 2
1967253N29167 1967 95 WP MM THELMA 1967-09-13 03:00:00 MX 41.5720 146.372 main 192 111 _PP___________ -1 41.5720 146.364 6 999 0 0 41.5720 146.380 2 999 31 11
1967253N29167 1967 95 WP MM THELMA 1967-09-13 06:00:00 ET 43.0000 147.000 1000 tokyo main 117 95 _OO___________ -1 43.0000 147.000 6 1000 0 0 0 43.0000 147.000 9 1000 28 29
1967253N29167 1967 95 WP MM THELMA 1967-09-13 09:00:00 ET 44.0293 148.219 main 100 77 _PP___________ -1 44.0293 148.219 6 1000 0 0 44.0293 148.219 9 1000 29 46
1967253N29167 1967 95 WP MM THELMA 1967-09-13 12:00:00 ET 45.0000 149.900 1000 tokyo main 68 54 _OO___________ -1 45.0000 149.900 6 1000 0 0 0 45.0000 149.900 9 1000 35 48
1967253N29167 1967 95 WP MM THELMA 1967-09-13 15:00:00 ET 46.3486 151.871 main 117 117 _PP___________ -1 46.3486 151.871 6 999 0 0 46.3486 151.871 9 999 38 47
1967253N29167 1967 95 WP MM THELMA 1967-09-13 18:00:00 ET 47.6000 153.900 998 tokyo main 287 177 _OO___________ -1 47.6000 153.900 6 998 0 0 0 47.6000 153.900 9 998 32 50
1967253N29167 1967 95 WP MM THELMA 1967-09-13 21:00:00 ET 48.4128 155.495 main 177 148 _PP___________ -1 48.4128 155.495 6 996 0 0 48.4128 155.495 9 996 25 56
1967253N29167 1967 95 WP MM THELMA 1967-09-14 00:00:00 ET 49.0000 157.000 994 tokyo main 154 153 _OO___________ -1 49.0000 157.000 6 994 0 0 0 49.0000 157.000 9 994 25 62
1967253N29167 1967 95 WP MM THELMA 1967-09-14 03:00:00 ET 49.5619 158.838 main 207 207 _PP___________ -1 49.5619 158.838 6 994 0 0 49.5619 158.838 9 994 25 67
1967253N29167 1967 95 WP MM THELMA 1967-09-14 06:00:00 ET 50.0000 160.600 994 tokyo main 259 259 _OO___________ -1 50.0000 160.600 6 994 0 0 0 50.0000 160.600 9 994 20 71
1967253N29167 1967 95 WP MM THELMA 1967-09-14 09:00:00 ET 50.2100 161.763 main 312 312 _PP___________ -1 50.2100 161.763 6 989 0 0 50.2100 161.763 9 989 18 70
1967253N29167 1967 95 WP MM THELMA 1967-09-14 12:00:00 ET 50.6000 163.200 984 tokyo main 348 348 _OO___________ -1 50.6000 163.200 6 984 0 0 0 50.6000 163.200 9 984 31 64
1967253N29167 1967 95 WP MM THELMA 1967-09-14 15:00:00 ET 51.5639 166.106 main 433 433 _PP___________ -1 51.5639 166.106 6 983 0 0 51.5639 166.106 9 983 41 61
1967253N29167 1967 95 WP MM THELMA 1967-09-14 18:00:00 ET 52.6000 169.000 982 tokyo main 508 508 _OO___________ -1 52.6000 169.000 6 982 0 0 0 52.6000 169.000 9 982 30 52
1967253N29167 1967 95 WP MM THELMA 1967-09-14 21:00:00 ET 53.4282 170.080 main 527 518 _PP___________ -1 53.4282 170.080 6 979 0 0 53.4282 170.080 9 979 18 40
1967253N29167 1967 95 WP MM THELMA 1967-09-15 00:00:00 ET 54.0000 171.000 976 tokyo main 538 538 _OO___________ -1 54.0000 171.000 6 976 0 0 0 54.0000 171.000 9 976 20 66
1967253N29167 1967 95 WP MM THELMA 1967-09-15 03:00:00 ET 54.2203 173.156 main 654 654 _PP___________ -1 54.2543 173.181 6 970 0 0 54.1524 173.106 9 970 29 90
1967253N29167 1967 95 WP MM THELMA 1967-09-15 06:00:00 ET 54.0000 176.000 964 tokyo main 737 737 _OO___________ -1 54.0000 176.000 6 964 0 0 0 54.0000 176.000 9 964 36 107
1967253N29167 1967 95 WP MM THELMA 1967-09-15 09:00:00 ET 53.1786 179.021 main 804 632 _P____________ -1 53.1786 179.021 6 964 0 0 9 41 119
1967253N29167 1967 95 EP CP THELMA 1967-09-15 12:00:00 ET 52.0000 182.000 main 621 _O____________ -1 52.0000 182.000 6 964 0 0 0 43 123

デジタル台風データ・検索

IBTrACS Databaseについて

本データベースは、米国NOAAが公開する1842年以降の世界の熱帯低気圧のベストトラックデータアーカイブInternational Best Track Archive for Climate Stewardship (IBTrACS)を、ウェブで閲覧しやすい形式に変換したものです。

最終更新日:2021-12-08